Wardeh — ODUS — position and weather

sailwx.info

Track history (hours):
 
Tides and Currents Weather Stations Pressure Air Temp Water Temp Dewpoint Dewpoint Depression Visibility Wind Speed Wind Dir Waves Ship Positions

Wardeh

Last reported at 2015-Jul-31 02:33 UTC. Time now 2015-Jul-31 17:30 UTC.
Position N 37°31' W 000°53'.

; draft 5.8 m.

Type: Cargo ship. MMSI: 450522000.

Date/timePositionNaut miles runAvg speedWind from/ knotsBaromVisibWave heightAir tempDewpointWater temp
2015-Jul-31 02:33N 37°31' W 000°53'1312.1
2015-Jul-31 01:28N 37°29' W 000°37'1211.0
2015-Jul-31 00:23N 37°28' W 000°22'911.0
2015-Jul-30 23:32N 37°28' W 000°10'15112.2
2015-Jul-30 11:10N 37°32' E 003°00'12514.3
2015-Jul-30 02:26N 37°35' E 005°37'10314.6
2015-Jul-29 19:22N 37°37' E 007°47'1514.6
2015-Jul-29 18:19N 37°37' E 008°07'1614.5
2015-Jul-29 17:13N 37°37' E 008°27'5314.1
2015-Jul-29 13:29N 37°38' E 009°34'6613.1
2015-Jul-29 08:27N 37°29' E 010°56'2713.8
2015-Jul-29 06:31N 37°22' E 011°28'1414.2
2015-Jul-29 05:33N 37°18' E 011°45'1414.0
2015-Jul-29 04:32N 37°14' E 012°02'1414.3
2015-Jul-29 03:33N 37°11' E 012°19'1714.5
2015-Jul-29 02:22N 37°06' E 012°40'1514.4
2015-Jul-29 01:20N 37°02' E 012°58'1114.2
2015-Jul-29 00:33N 36°60' E 013°11'1414.1
2015-Jul-28 23:34N 36°56' E 013°28'1414.2
2015-Jul-28 22:33N 36°53' E 013°45'1514.7
2015-Jul-28 21:33N 36°49' E 014°03'1514.9
2015-Jul-28 20:33N 36°44' E 014°21'1514.7
2015-Jul-28 19:33N 36°40' E 014°39'1414.3
2015-Jul-28 18:33N 36°36' E 014°56'1414.0
2015-Jul-28 17:33N 36°33' E 015°13'1413.9
2015-Jul-28 16:33N 36°30' E 015°30'1413.7
2015-Jul-28 15:32N 36°26' E 015°46'2813.7
2015-Jul-28 13:29N 36°19' E 016°20'36214.5
2015-Jul-27 12:34N 34°50' E 023°31'18515.1
2015-Jul-27 00:16N 34°36' E 027°16'1013.9
2015-Jul-26 23:33N 34°35' E 027°28'1414.0
2015-Jul-26 22:33N 34°33' E 027°45'3514.3
2015-Jul-26 20:07N 34°30' E 028°27'2914.2
2015-Jul-26 18:06N 34°27' E 029°01'1413.8
2015-Jul-26 17:07N 34°26' E 029°17'813.6
2015-Jul-26 16:33N 34°25' E 029°27'1813.7
2015-Jul-26 15:15N 34°23' E 029°48'3013.9
2015-Jul-26 13:06N 34°20' E 030°24'813.9
2015-Jul-26 12:32N 34°20' E 030°34'1714.2
2015-Jul-26 11:22N 34°18' E 030°54'1214.2
2015-Jul-26 10:33N 34°17' E 031°08'1614.3
2015-Jul-26 09:28N 34°15' E 031°27'1714.5
2015-Jul-26 08:18N 34°13' E 031°47'2714.5
2015-Jul-26 06:28N 34°11' E 032°19'2714.3
2015-Jul-26 04:33N 34°08' E 032°52'1414.2
2015-Jul-26 03:32N 34°07' E 033°09'1514.3
2015-Jul-26 02:30N 34°05' E 033°27'1314.3
2015-Jul-26 01:33N 34°04' E 033°43'1414.3
2015-Jul-26 00:33N 34°03' E 034°00'1514.2
2015-Jul-25 23:32N 34°01' E 034°18'62 2.7
2015-Jul-25 00:28N 33°54' E 035°32'0 0.0
2015-Jul-24 23:19N 33°54' E 035°32'21 1.1
2015-Jul-24 03:29N 33°55' E 035°06'1311.6
2015-Jul-24 02:24N 33°58' E 034°51'1 0.4
2015-Jul-24 01:08N 33°58' E 034°52'0 0.5
2015-Jul-24 00:33N 33°58' E 034°52'1 0.6
2015-Jul-23 23:33N 33°59' E 034°52'1 0.6
2015-Jul-23 22:34N 33°59' E 034°53'1 0.9
2015-Jul-23 21:31N 34°00' E 034°53'11 7.8
2015-Jul-23 20:05N 34°12' E 034°54'6 9.5
2015-Jul-23 19:24N 34°18' E 034°54'8 9.4
2015-Jul-23 18:33N 34°26' E 034°55'10 9.5
2015-Jul-23 17:31N 34°36' E 034°55'9 9.6
2015-Jul-23 16:33N 34°45' E 034°55'12 9.3
2015-Jul-23 15:18N 34°57' E 034°57'7 9.0
2015-Jul-23 14:33N 35°03' E 034°57'  
Track history (hours):
 
Tides and Currents Weather Stations Pressure Air Temp Water Temp Dewpoint Dewpoint Depression Visibility Wind Speed Wind Dir Waves Ship Positions

Wardeh

Last reported at 2015-Jul-31 02:33 UTC. Time now 2015-Jul-31 17:30 UTC.
Position N 37°31' W 000°53'.

; draft 5.8 m.

Type: Cargo ship. MMSI: 450522000.

Date/timePositionNaut miles runAvg speedWind from/ knotsBaromVisibWave heightAir tempDewpointWater temp
2015-Jul-31 02:33N 37°31' W 000°53'1312.1
2015-Jul-31 01:28N 37°29' W 000°37'1211.0
2015-Jul-31 00:23N 37°28' W 000°22'911.0
2015-Jul-30 23:32N 37°28' W 000°10'15112.2
2015-Jul-30 11:10N 37°32' E 003°00'12514.3
2015-Jul-30 02:26N 37°35' E 005°37'10314.6
2015-Jul-29 19:22N 37°37' E 007°47'1514.6
2015-Jul-29 18:19N 37°37' E 008°07'1614.5
2015-Jul-29 17:13N 37°37' E 008°27'5314.1
2015-Jul-29 13:29N 37°38' E 009°34'6613.1
2015-Jul-29 08:27N 37°29' E 010°56'2713.8
2015-Jul-29 06:31N 37°22' E 011°28'1414.2
2015-Jul-29 05:33N 37°18' E 011°45'1414.0
2015-Jul-29 04:32N 37°14' E 012°02'1414.3
2015-Jul-29 03:33N 37°11' E 012°19'1714.5
2015-Jul-29 02:22N 37°06' E 012°40'1514.4
2015-Jul-29 01:20N 37°02' E 012°58'1114.2
2015-Jul-29 00:33N 36°60' E 013°11'1414.1
2015-Jul-28 23:34N 36°56' E 013°28'1414.2
2015-Jul-28 22:33N 36°53' E 013°45'1514.7
2015-Jul-28 21:33N 36°49' E 014°03'1514.9
2015-Jul-28 20:33N 36°44' E 014°21'1514.7
2015-Jul-28 19:33N 36°40' E 014°39'1414.3
2015-Jul-28 18:33N 36°36' E 014°56'1414.0
2015-Jul-28 17:33N 36°33' E 015°13'1413.9
2015-Jul-28 16:33N 36°30' E 015°30'1413.7
2015-Jul-28 15:32N 36°26' E 015°46'2813.7
2015-Jul-28 13:29N 36°19' E 016°20'36214.5
2015-Jul-27 12:34N 34°50' E 023°31'18515.1
2015-Jul-27 00:16N 34°36' E 027°16'1013.9
2015-Jul-26 23:33N 34°35' E 027°28'1414.0
2015-Jul-26 22:33N 34°33' E 027°45'3514.3
2015-Jul-26 20:07N 34°30' E 028°27'2914.2
2015-Jul-26 18:06N 34°27' E 029°01'1413.8
2015-Jul-26 17:07N 34°26' E 029°17'813.6
2015-Jul-26 16:33N 34°25' E 029°27'1813.7
2015-Jul-26 15:15N 34°23' E 029°48'3013.9
2015-Jul-26 13:06N 34°20' E 030°24'813.9
2015-Jul-26 12:32N 34°20' E 030°34'1714.2
2015-Jul-26 11:22N 34°18' E 030°54'1214.2
2015-Jul-26 10:33N 34°17' E 031°08'1614.3
2015-Jul-26 09:28N 34°15' E 031°27'1714.5
2015-Jul-26 08:18N 34°13' E 031°47'2714.5
2015-Jul-26 06:28N 34°11' E 032°19'2714.3
2015-Jul-26 04:33N 34°08' E 032°52'1414.2
2015-Jul-26 03:32N 34°07' E 033°09'1514.3
2015-Jul-26 02:30N 34°05' E 033°27'1314.3
2015-Jul-26 01:33N 34°04' E 033°43'1414.3
2015-Jul-26 00:33N 34°03' E 034°00'1514.2
2015-Jul-25 23:32N 34°01' E 034°18'62 2.7
2015-Jul-25 00:28N 33°54' E 035°32'0 0.0
2015-Jul-24 23:19N 33°54' E 035°32'21 1.1
2015-Jul-24 03:29N 33°55' E 035°06'1311.6
2015-Jul-24 02:24N 33°58' E 034°51'1 0.4
2015-Jul-24 01:08N 33°58' E 034°52'0 0.5
2015-Jul-24 00:33N 33°58' E 034°52'1 0.6
2015-Jul-23 23:33N 33°59' E 034°52'1 0.6
2015-Jul-23 22:34N 33°59' E 034°53'1 0.9
2015-Jul-23 21:31N 34°00' E 034°53'11 7.8
2015-Jul-23 20:05N 34°12' E 034°54'6 9.5
2015-Jul-23 19:24N 34°18' E 034°54'8 9.4
2015-Jul-23 18:33N 34°26' E 034°55'10 9.5
2015-Jul-23 17:31N 34°36' E 034°55'9 9.6
2015-Jul-23 16:33N 34°45' E 034°55'12 9.3
2015-Jul-23 15:18N 34°57' E 034°57'7 9.0
2015-Jul-23 14:33N 35°03' E 034°57'  

Dump ship's entire track history